Terminal Aerodrome Forecast
Issued by NWS

Home | Current Version | Previous Version | Text Only | Print | Product List | Glossary On
Versions: 1 2 3 4 5 6 7 8 9 10 11 12 13 14 15 16 17 18 19 20 21 22 23 24 25 26 27 28 29 30 31 32 33 34 35 36
000
FTUS41 KBTV 182320
TAFPBG
TAF
KPBG 182320Z 1900/1924 15009KT P6SM VCSH SCT080
      TEMPO 1900/1901 4SM TS BKN080CB
     FM190100 17009KT P6SM SCT080
     FM190300 18005KT P6SM BKN045
     FM190900 18005KT P6SM BKN090
     FM191700 23007KT P6SM SCT045=

USA.gov is the U.S. government's official web portal to all federal, state and local government web resources and services.